ボードー の空港の天気 - METARとTAF

Bodo Vi ( ENBO / BOO ) - ノルウェー ヌールラン県ボードー
飛行場実況気象(Metar)
観測時間05/28 12:20 CEST (05/28 10:20 UTC)
風向・風速北北西 6m/s
視程10km以上
天気現象
少しの雲 雲底高度 300m
全天の4割程度の雲 雲底高度 520m
気温10℃
湿度76%
気圧1000hPa
METARENBO 281020Z 34012KT 9999 FEW010 SCT017 10/06 Q1000
過去の天気等 Google飛行場航空写真 Wunderground天気予報

過去48時間のMETAR

飛行場予報(TAF)
発表時間: -
28日16時 CEST ~ 28日23時 CEST に 確率 40% で一時的に
視程4000m
天気現象雨霧雨
全天の8割程度の雲 雲底高度 270m
TAF ENBO 2806/2906 34009KT 9999 FEW010 BKN025
PROB40 TEMPO 2814/2821 4000 RADZ BKN009